createdAt,value
2022-10-28T00:00:53.380Z,11.40
2022-10-28T00:05:47.256Z,11.40
2022-10-28T00:10:39.644Z,11.40
2022-10-28T00:15:38.107Z,11.40
2022-10-28T00:20:34.508Z,11.40
2022-10-28T00:25:26.801Z,11.40
2022-10-28T00:30:19.153Z,11.40
2022-10-28T00:35:11.339Z,11.50
2022-10-28T00:40:03.803Z,11.60
2022-10-28T00:45:06.066Z,11.60
2022-10-28T00:50:18.125Z,11.50
2022-10-28T00:55:11.169Z,11.60
2022-10-28T01:00:06.577Z,11.70
2022-10-28T01:04:59.299Z,11.80
2022-10-28T01:09:52.292Z,11.90
2022-10-28T01:15:02.310Z,11.90
2022-10-28T01:20:13.129Z,11.90
2022-10-28T01:25:34.479Z,12.00
2022-10-28T01:30:40.531Z,12.20
2022-10-28T01:36:01.984Z,12.30
2022-10-28T01:41:12.209Z,12.30
2022-10-28T01:46:11.756Z,12.40
2022-10-28T01:51:34.583Z,12.50
2022-10-28T01:56:34.507Z,12.50
2022-10-28T02:01:34.200Z,12.60
2022-10-28T02:06:37.311Z,12.70
2022-10-28T02:11:54.269Z,12.70
2022-10-28T02:17:08.872Z,12.70
2022-10-28T02:22:27.449Z,12.70
2022-10-28T02:27:39.868Z,12.70
2022-10-28T02:32:40.558Z,12.70
2022-10-28T02:37:41.517Z,12.70
2022-10-28T02:42:40.297Z,12.60
2022-10-28T02:47:41.082Z,12.50
2022-10-28T02:52:36.877Z,12.50
2022-10-28T02:57:49.418Z,12.60
2022-10-28T03:02:41.656Z,12.60
2022-10-28T03:07:36.828Z,12.60
2022-10-28T03:12:36.179Z,12.70
2022-10-28T03:17:28.373Z,12.70
2022-10-28T03:22:25.271Z,12.60
2022-10-28T03:27:17.993Z,12.70
2022-10-28T03:32:10.234Z,12.80
2022-10-28T03:37:02.465Z,12.80
2022-10-28T03:41:55.067Z,12.80
2022-10-28T03:46:47.312Z,12.70
2022-10-28T03:51:39.547Z,12.60
2022-10-28T03:56:34.994Z,12.60
2022-10-28T04:01:27.311Z,12.50
2022-10-28T04:06:19.632Z,12.40
2022-10-28T04:11:11.847Z,12.30
2022-10-28T04:16:04.335Z,12.30
2022-10-28T04:20:58.157Z,12.30
2022-10-28T04:25:54.337Z,12.30
2022-10-28T04:30:49.352Z,12.40
2022-10-28T04:35:43.322Z,12.40
2022-10-28T04:40:38.766Z,12.30
2022-10-28T04:45:35.348Z,12.20
2022-10-28T04:50:28.458Z,12.30
2022-10-28T04:55:35.525Z,12.50
2022-10-28T05:00:33.267Z,12.80
2022-10-28T05:05:25.955Z,12.90
2022-10-28T05:10:18.409Z,13.10
2022-10-28T05:15:11.950Z,13.10
2022-10-28T05:20:04.776Z,13.30
2022-10-28T05:24:56.927Z,13.40
2022-10-28T05:29:49.239Z,13.40
2022-10-28T05:34:43.990Z,13.30
2022-10-28T05:39:36.395Z,13.40
2022-10-28T05:44:28.573Z,13.30
2022-10-28T05:49:20.851Z,13.20
2022-10-28T05:54:13.146Z,13.40
2022-10-28T05:59:06.981Z,13.30
2022-10-28T06:03:59.237Z,13.10
2022-10-28T06:08:51.459Z,13.30
2022-10-28T06:13:42.084Z,13.20
2022-10-28T06:18:34.312Z,13.30
2022-10-28T06:23:27.814Z,13.50
2022-10-28T06:28:26.794Z,13.50
2022-10-28T06:33:24.229Z,13.60
2022-10-28T06:38:16.414Z,13.70
2022-10-28T06:43:13.146Z,13.80
2022-10-28T06:48:11.245Z,13.90
2022-10-28T06:53:09.165Z,14.00
2022-10-28T06:58:03.190Z,14.10
2022-10-28T07:02:59.253Z,14.50
2022-10-28T07:08:00.624Z,14.90
2022-10-28T07:12:53.960Z,15.30
2022-10-28T07:18:07.083Z,16.00
2022-10-28T07:23:06.112Z,16.60
2022-10-28T07:28:09.969Z,17.50
2022-10-28T07:33:04.469Z,18.70
2022-10-28T07:37:59.125Z,19.70
2022-10-28T07:42:52.012Z,19.40
2022-10-28T07:47:47.486Z,19.20
2022-10-28T07:52:40.589Z,19.50
2022-10-28T07:57:35.604Z,19.00
2022-10-28T08:02:27.955Z,20.30
2022-10-28T08:07:20.790Z,19.90
2022-10-28T08:12:16.511Z,19.40
2022-10-28T08:17:08.976Z,19.00
2022-10-28T08:22:09.911Z,18.30
2022-10-28T08:27:02.230Z,18.00
2022-10-28T08:31:54.475Z,18.60
2022-10-28T08:36:46.696Z,19.40
2022-10-28T08:41:45.189Z,19.00
2022-10-28T08:47:04.607Z,19.90
2022-10-28T08:52:18.467Z,19.90
2022-10-28T08:57:21.553Z,20.00
2022-10-28T09:02:24.711Z,20.30
2022-10-28T09:07:22.416Z,20.90
2022-10-28T09:12:55.475Z,21.60
2022-10-28T09:17:58.354Z,22.20
2022-10-28T09:23:07.724Z,21.40
2022-10-28T09:28:41.019Z,21.40
2022-10-28T09:33:51.793Z,22.30
2022-10-28T09:38:44.927Z,25.40
2022-10-28T09:43:44.636Z,26.20
2022-10-28T09:48:50.162Z,27.50
2022-10-28T09:53:59.880Z,26.70
2022-10-28T09:59:00.101Z,26.10
2022-10-28T10:03:57.580Z,24.10
2022-10-28T10:08:57.535Z,23.80
2022-10-28T10:13:53.098Z,22.50
2022-10-28T10:18:55.705Z,23.10
2022-10-28T10:23:52.925Z,24.90
2022-10-28T10:28:54.834Z,27.40
2022-10-28T10:33:54.597Z,28.20
2022-10-28T10:38:56.178Z,28.40
2022-10-28T10:43:56.406Z,28.00
2022-10-28T10:49:12.829Z,27.60
2022-10-28T10:54:14.889Z,26.50
2022-10-28T10:59:26.961Z,26.50
2022-10-28T11:04:22.089Z,26.50
2022-10-28T11:09:36.630Z,27.30
2022-10-28T11:14:35.617Z,26.30
2022-10-28T11:19:37.153Z,24.90
2022-10-28T11:24:55.731Z,23.70
2022-10-28T11:29:57.973Z,23.30
2022-10-28T11:35:21.332Z,21.30
2022-10-28T11:40:50.062Z,20.80
2022-10-28T11:45:48.604Z,20.90
2022-10-28T11:50:49.567Z,21.40
2022-10-28T11:56:00.391Z,21.50
2022-10-28T12:01:07.615Z,21.30
2022-10-28T12:06:12.460Z,21.80
2022-10-28T12:11:25.213Z,22.00
2022-10-28T12:16:37.224Z,21.50
2022-10-28T12:21:58.568Z,21.40
2022-10-28T12:27:00.284Z,21.30
2022-10-28T12:32:20.811Z,21.20
2022-10-28T12:37:19.593Z,20.90
2022-10-28T12:42:25.848Z,20.80
2022-10-28T12:47:27.895Z,20.70
2022-10-28T12:52:51.217Z,20.80
2022-10-28T12:57:55.325Z,20.70
2022-10-28T13:03:01.702Z,20.50
2022-10-28T13:08:34.205Z,20.20
2022-10-28T13:13:55.349Z,20.10
2022-10-28T13:19:04.232Z,20.10
2022-10-28T13:24:18.372Z,20.20
2022-10-28T13:29:35.974Z,20.30
2022-10-28T13:34:41.010Z,20.20
2022-10-28T13:39:47.853Z,20.10
2022-10-28T13:45:05.043Z,20.00
2022-10-28T13:50:06.672Z,20.20
2022-10-28T13:55:27.957Z,20.30
2022-10-28T14:00:26.185Z,20.30
2022-10-28T14:05:48.865Z,20.10
2022-10-28T14:11:01.210Z,19.90
2022-10-28T14:16:43.275Z,19.70
2022-10-28T14:22:01.997Z,19.60
2022-10-28T14:27:06.789Z,19.40
2022-10-28T14:31:59.017Z,19.20
2022-10-28T14:37:08.748Z,19.00
2022-10-28T14:42:13.180Z,18.80
2022-10-28T14:47:42.649Z,18.60
2022-10-28T14:52:41.505Z,18.40
2022-10-28T14:57:37.912Z,18.20
2022-10-28T15:02:39.923Z,18.10
2022-10-28T15:07:38.922Z,18.00
2022-10-28T15:12:43.939Z,17.90
2022-10-28T15:17:46.930Z,17.80
2022-10-28T15:22:47.876Z,17.80
2022-10-28T15:27:45.247Z,17.70
2022-10-28T15:32:37.902Z,17.60
2022-10-28T15:37:39.291Z,17.60
2022-10-28T15:43:09.382Z,17.50
2022-10-28T15:48:44.253Z,17.50
2022-10-28T15:53:42.858Z,17.40
2022-10-28T15:58:47.071Z,17.30
2022-10-28T16:03:58.296Z,17.20
2022-10-28T16:09:27.860Z,17.10
2022-10-28T16:14:37.463Z,17.00
2022-10-28T16:19:44.485Z,17.00
2022-10-28T16:24:52.322Z,16.90
2022-10-28T16:29:52.573Z,17.00
2022-10-28T16:34:47.296Z,17.00
2022-10-28T16:39:42.912Z,17.10
2022-10-28T16:44:40.801Z,17.10
2022-10-28T16:49:42.672Z,17.10
2022-10-28T16:54:37.707Z,17.00
2022-10-28T16:59:30.262Z,16.80
2022-10-28T17:04:29.529Z,16.80
2022-10-28T17:09:24.672Z,16.80
2022-10-28T17:14:22.866Z,16.70
2022-10-28T17:19:21.070Z,16.60
2022-10-28T17:24:19.406Z,16.40
2022-10-28T17:29:17.414Z,16.30
2022-10-28T17:34:20.843Z,16.10
2022-10-28T17:39:28.756Z,16.00
2022-10-28T17:44:31.909Z,15.90
2022-10-28T17:49:28.195Z,15.80
2022-10-28T17:54:33.274Z,15.70
2022-10-28T17:59:36.551Z,15.70
2022-10-28T18:04:41.993Z,15.60
2022-10-28T18:09:47.221Z,15.50
2022-10-28T18:14:59.235Z,15.40
2022-10-28T18:20:14.066Z,15.40
2022-10-28T18:25:16.822Z,15.40
2022-10-28T18:30:13.538Z,15.40
2022-10-28T18:35:21.664Z,15.30
2022-10-28T18:40:34.325Z,15.20
2022-10-28T18:45:32.203Z,15.00
2022-10-28T18:50:45.697Z,14.90
2022-10-28T18:55:59.728Z,14.80
2022-10-28T19:06:50.461Z,14.80
2022-10-28T19:17:30.182Z,14.60
2022-10-28T19:22:32.980Z,14.60
2022-10-28T19:27:33.178Z,14.50
2022-10-28T19:32:43.384Z,14.50
2022-10-28T19:37:42.027Z,14.40
2022-10-28T19:42:41.995Z,14.40
2022-10-28T19:48:03.976Z,14.30
2022-10-28T19:53:01.140Z,14.20
2022-10-28T19:58:13.529Z,14.20
2022-10-28T20:03:12.008Z,14.10
2022-10-28T20:08:04.457Z,14.10
2022-10-28T20:13:03.598Z,14.10
2022-10-28T20:29:07.068Z,14.30
2022-10-28T20:34:04.239Z,14.30
2022-10-28T20:39:53.636Z,14.30
2022-10-28T20:45:23.885Z,14.20
2022-10-28T20:50:33.287Z,14.10
2022-10-28T20:55:42.151Z,13.90
2022-10-28T21:01:15.947Z,13.90
2022-10-28T21:06:23.304Z,13.90
2022-10-28T21:11:23.076Z,14.00
2022-10-28T21:16:50.803Z,14.00
2022-10-28T21:21:54.632Z,14.00
2022-10-28T21:26:52.163Z,13.90
2022-10-28T21:31:51.417Z,13.80
2022-10-28T21:36:53.978Z,13.70
2022-10-28T21:42:31.790Z,13.60
2022-10-28T21:47:39.964Z,13.50
2022-10-28T21:52:32.189Z,13.50
2022-10-28T21:57:32.585Z,13.50
2022-10-28T22:02:28.811Z,13.50
2022-10-28T22:08:31.908Z,13.40
2022-10-28T22:14:03.383Z,13.40
2022-10-28T22:24:12.770Z,13.40
2022-10-28T22:29:21.088Z,13.30
2022-10-28T22:34:13.745Z,13.30
2022-10-28T22:39:10.836Z,13.20
2022-10-28T22:44:03.415Z,13.20
2022-10-28T22:49:03.928Z,13.20
2022-10-28T22:54:02.211Z,13.20
2022-10-28T22:59:03.094Z,13.30
2022-10-28T23:05:01.326Z,13.20
2022-10-28T23:09:54.923Z,13.20
2022-10-28T23:15:00.952Z,13.20
2022-10-28T23:19:53.527Z,13.10
2022-10-28T23:24:55.040Z,13.00
2022-10-28T23:29:54.921Z,13.00
2022-10-28T23:34:47.293Z,13.10
2022-10-28T23:39:39.441Z,13.30
2022-10-28T23:44:35.879Z,13.40
2022-10-28T23:49:28.126Z,13.60
2022-10-28T23:54:20.289Z,13.90
2022-10-28T23:59:12.567Z,13.80
